KFAM/FAM METAR and TAF weather

Enter ICAO airport designator
Station Type Date Time Source
KFAM METAR 2020/09/24 10:56 UTC NOAA

KFAM 241056Z AUTO 09003KT 10SM OVC010 13/13 A3001 RMK AO2 SLP170 T01280128


Station Type Date Time Source
KFAM Decoded METAR 2020/09/24 10:56 UTC NOAA

Farmington Airport, MO, United States (KFAM) 37-46N 090-26W
Sep 24, 2020 - 06:56 AM EDT / 2020.09.24 1056 UTC
Wind: from the E (090 degrees) at 3 MPH (3 KT):0
Visibility: 10 mile(s):0
Sky conditions: overcast
Temperature: 55.0 F (12.8 C)
Dew Point: 55.0 F (12.8 C)
Relative Humidity: 100%
Pressure (altimeter): 30.01 in. Hg (1016 hPa)
ob: KFAM 241056Z AUTO 09003KT 10SM OVC010 13/13 A3001 RMK AO2 SLP170 T01280128
cycle: 11

Station Type Date Time Source
KFAM TAF UTC NOAA

Error!

Example: see airport list